createdAt,value
2022-08-26T00:03:02.804Z,18.70
2022-08-26T00:08:04.304Z,18.61
2022-08-26T00:13:06.101Z,18.68
2022-08-26T00:18:16.949Z,18.69
2022-08-26T00:23:24.211Z,18.73
2022-08-26T00:28:26.070Z,18.76
2022-08-26T00:33:27.415Z,18.79
2022-08-26T00:38:28.755Z,18.77
2022-08-26T00:43:33.375Z,18.88
2022-08-26T00:48:51.824Z,18.87
2022-08-26T00:53:59.029Z,18.95
2022-08-26T00:59:03.402Z,18.89
2022-08-26T01:04:05.955Z,18.82
2022-08-26T01:09:07.339Z,18.75
2022-08-26T01:14:09.521Z,18.60
2022-08-26T01:19:21.919Z,18.50
2022-08-26T01:24:25.947Z,18.40
2022-08-26T01:29:30.008Z,18.36
2022-08-26T01:34:35.012Z,18.32
2022-08-26T01:39:36.523Z,18.28
2022-08-26T01:44:41.038Z,18.24
2022-08-26T01:49:43.420Z,18.22
2022-08-26T01:54:46.287Z,18.20
2022-08-26T01:59:53.006Z,18.15
2022-08-26T02:04:58.437Z,18.15
2022-08-26T02:10:00.138Z,18.14
2022-08-26T02:15:05.673Z,18.15
2022-08-26T02:20:13.201Z,18.15
2022-08-26T02:25:19.659Z,18.14
2022-08-26T02:30:22.992Z,18.17
2022-08-26T02:35:25.109Z,18.28
2022-08-26T02:40:30.634Z,18.35
2022-08-26T02:45:33.343Z,18.51
2022-08-26T02:50:34.950Z,18.59
2022-08-26T02:55:36.695Z,18.56
2022-08-26T03:00:38.864Z,18.71
2022-08-26T03:05:54.583Z,18.69
2022-08-26T03:10:55.978Z,18.68
2022-08-26T03:15:57.380Z,18.70
2022-08-26T03:20:59.375Z,18.72
2022-08-26T03:26:01.621Z,18.71
2022-08-26T03:31:02.980Z,18.80
2022-08-26T03:36:06.588Z,18.82
2022-08-26T03:41:08.894Z,18.87
2022-08-26T03:46:12.074Z,19.01
2022-08-26T03:51:14.923Z,19.15
2022-08-26T03:56:19.779Z,19.50
2022-08-26T04:01:21.413Z,19.52
2022-08-26T04:06:22.926Z,19.72
2022-08-26T04:11:30.390Z,19.79
2022-08-26T04:16:34.172Z,19.87
2022-08-26T04:21:38.271Z,19.97
2022-08-26T04:26:43.659Z,20.04
2022-08-26T04:31:45.611Z,20.05
2022-08-26T04:36:47.738Z,20.09
2022-08-26T04:41:50.127Z,20.16
2022-08-26T04:46:52.349Z,20.11
2022-08-26T04:51:54.850Z,20.17
2022-08-26T04:56:56.337Z,20.21
2022-08-26T05:01:59.498Z,20.24
2022-08-26T05:07:02.737Z,20.36
2022-08-26T05:12:04.519Z,20.41
2022-08-26T05:17:06.020Z,20.47
2022-08-26T05:22:08.176Z,20.63
2022-08-26T05:27:11.777Z,20.63
2022-08-26T05:32:13.832Z,20.74
2022-08-26T05:37:17.066Z,20.77
2022-08-26T05:42:20.027Z,20.86
2022-08-26T05:47:21.372Z,20.83
2022-08-26T05:52:26.090Z,20.77
2022-08-26T05:57:30.474Z,20.91
2022-08-26T06:02:31.846Z,20.92
2022-08-26T06:07:51.606Z,21.13
2022-08-26T06:12:53.016Z,21.10
2022-08-26T06:17:54.358Z,21.19
2022-08-26T06:23:14.512Z,21.06
2022-08-26T06:28:16.006Z,21.23
2022-08-26T06:33:17.558Z,21.18
2022-08-26T06:38:19.578Z,21.30
2022-08-26T06:43:23.711Z,21.58
2022-08-26T06:48:25.087Z,21.59
2022-08-26T06:53:28.072Z,21.67
2022-08-26T06:58:30.898Z,21.66
2022-08-26T07:03:39.515Z,21.75
2022-08-26T07:08:41.312Z,21.83
2022-08-26T07:13:42.850Z,21.88
2022-08-26T07:18:45.046Z,21.92
2022-08-26T07:23:48.890Z,21.94
2022-08-26T07:28:53.488Z,21.80
2022-08-26T07:33:54.967Z,22.02
2022-08-26T07:38:56.315Z,21.84
2022-08-26T07:43:57.658Z,21.82
2022-08-26T07:49:00.639Z,21.99
2022-08-26T07:54:02.014Z,22.23
2022-08-26T07:59:03.466Z,22.25
2022-08-26T08:04:17.278Z,22.25
2022-08-26T08:09:19.310Z,22.35
2022-08-26T08:14:22.121Z,22.28
2022-08-26T08:19:24.391Z,22.33
2022-08-26T08:24:38.003Z,22.35
2022-08-26T08:29:39.336Z,22.48
2022-08-26T08:39:46.918Z,22.82
2022-08-26T08:44:52.791Z,22.63
2022-08-26T08:49:55.759Z,22.89
2022-08-26T08:54:58.148Z,22.80
2022-08-26T09:00:08.297Z,22.74
2022-08-26T09:05:15.022Z,22.71
2022-08-26T09:10:19.683Z,23.01
2022-08-26T09:15:35.018Z,22.88
2022-08-26T09:20:55.003Z,23.13
2022-08-26T09:25:58.300Z,23.40
2022-08-26T09:31:15.059Z,23.60
2022-08-26T09:36:35.383Z,23.55
2022-08-26T09:41:40.452Z,23.72
2022-08-26T09:46:44.113Z,23.84
2022-08-26T09:51:45.458Z,23.76
2022-08-26T09:56:52.399Z,23.58
2022-08-26T10:01:54.893Z,23.58
2022-08-26T10:06:59.544Z,23.61
2022-08-26T10:12:04.134Z,23.79
2022-08-26T10:17:09.400Z,23.72
2022-08-26T10:22:16.758Z,23.68
2022-08-26T10:27:37.696Z,23.65
2022-08-26T10:32:50.387Z,23.62
2022-08-26T10:37:54.159Z,23.65
2022-08-26T10:42:59.260Z,23.65
2022-08-26T10:48:10.299Z,23.80
2022-08-26T10:53:12.032Z,23.75
2022-08-26T10:58:38.650Z,23.85
2022-08-26T11:03:40.014Z,24.27
2022-08-26T11:08:50.339Z,24.20
2022-08-26T11:13:59.528Z,24.29
2022-08-26T11:19:00.930Z,24.10
2022-08-26T11:24:03.198Z,23.82
2022-08-26T11:29:12.861Z,23.86
2022-08-26T11:34:14.823Z,24.16
2022-08-26T11:39:25.937Z,24.46
2022-08-26T11:44:40.673Z,25.18
2022-08-26T11:49:42.107Z,25.23
2022-08-26T11:54:59.818Z,25.42
2022-08-26T12:00:01.830Z,25.38
2022-08-26T12:05:03.492Z,25.02
2022-08-26T12:10:05.825Z,24.53
2022-08-26T12:15:13.735Z,24.25
2022-08-26T12:20:17.528Z,23.93
2022-08-26T12:25:22.561Z,23.78
2022-08-26T12:30:26.285Z,24.59
2022-08-26T12:35:28.755Z,25.14
2022-08-26T12:40:30.958Z,24.97
2022-08-26T12:45:38.036Z,25.00
2022-08-26T12:50:44.420Z,24.53
2022-08-26T12:55:49.885Z,24.69
2022-08-26T13:00:53.447Z,24.63
2022-08-26T13:06:08.222Z,24.47
2022-08-26T13:11:28.969Z,24.63
2022-08-26T13:16:30.754Z,24.28
2022-08-26T13:21:37.463Z,24.88
2022-08-26T13:26:40.528Z,24.53
2022-08-26T13:31:44.220Z,24.49
2022-08-26T13:36:50.062Z,24.62
2022-08-26T13:41:52.077Z,25.11
2022-08-26T13:46:53.960Z,24.91
2022-08-26T13:51:55.293Z,25.41
2022-08-26T13:56:56.685Z,24.82
2022-08-26T14:01:58.779Z,24.65
2022-08-26T14:07:00.604Z,24.74
2022-08-26T14:12:02.873Z,25.58
2022-08-26T14:17:04.302Z,26.22
2022-08-26T14:22:05.744Z,26.26
2022-08-26T14:27:07.073Z,25.89
2022-08-26T14:32:12.863Z,25.37
2022-08-26T14:37:15.409Z,25.38
2022-08-26T14:42:19.751Z,25.12
2022-08-26T14:47:22.883Z,24.71
2022-08-26T14:52:24.294Z,24.36
2022-08-26T14:57:25.627Z,24.08
2022-08-26T15:02:33.196Z,23.77
2022-08-26T15:07:34.990Z,24.17
2022-08-26T15:12:36.332Z,24.47
2022-08-26T15:17:38.403Z,23.78
2022-08-26T15:22:42.202Z,23.34
2022-08-26T15:27:43.562Z,23.38
2022-08-26T15:32:44.954Z,23.44
2022-08-26T15:37:46.362Z,23.37
2022-08-26T15:42:47.826Z,23.39
2022-08-26T15:48:01.548Z,23.55
2022-08-26T15:53:04.534Z,23.29
2022-08-26T15:58:05.927Z,23.46
2022-08-26T16:03:07.711Z,23.63
2022-08-26T16:08:09.776Z,23.34
2022-08-26T16:13:12.959Z,23.48
2022-08-26T16:18:16.508Z,23.22
2022-08-26T16:23:20.170Z,23.22
2022-08-26T16:28:26.118Z,23.08
2022-08-26T16:33:29.896Z,22.95
2022-08-26T16:38:31.252Z,22.96
2022-08-26T16:43:33.056Z,22.95
2022-08-26T16:48:35.027Z,22.84
2022-08-26T16:53:36.352Z,22.75
2022-08-26T16:58:37.700Z,22.73
2022-08-26T17:03:39.039Z,22.58
2022-08-26T17:08:41.055Z,22.37
2022-08-26T17:13:42.489Z,22.21
2022-08-26T17:18:43.886Z,22.12
2022-08-26T17:23:45.921Z,21.84
2022-08-26T17:28:47.282Z,21.73
2022-08-26T17:33:53.206Z,21.67
2022-08-26T17:38:56.358Z,21.58
2022-08-26T17:43:57.691Z,21.48
2022-08-26T17:48:59.246Z,21.37
2022-08-26T17:54:00.588Z,21.28
2022-08-26T17:59:04.015Z,21.21
2022-08-26T18:04:05.668Z,21.08
2022-08-26T18:09:07.474Z,21.04
2022-08-26T18:14:08.891Z,21.01
2022-08-26T18:19:10.306Z,20.90
2022-08-26T18:24:14.081Z,20.90
2022-08-26T18:29:16.760Z,20.85
2022-08-26T18:34:19.517Z,20.79
2022-08-26T18:39:22.159Z,20.65
2022-08-26T18:44:25.050Z,20.67
2022-08-26T18:49:26.386Z,20.78
2022-08-26T18:54:27.771Z,20.71
2022-08-26T18:59:30.358Z,20.70
2022-08-26T19:04:31.962Z,20.55
2022-08-26T19:09:33.678Z,20.64
2022-08-26T19:14:35.858Z,20.59
2022-08-26T19:19:38.214Z,20.50
2022-08-26T19:24:39.553Z,20.51
2022-08-26T19:29:40.920Z,20.49
2022-08-26T19:34:42.397Z,20.51
2022-08-26T19:39:43.742Z,20.46
2022-08-26T19:45:03.799Z,20.46
2022-08-26T19:50:07.453Z,20.44
2022-08-26T19:55:10.024Z,20.43
2022-08-26T20:00:14.807Z,20.41
2022-08-26T20:05:16.624Z,20.38
2022-08-26T20:10:21.009Z,20.34
2022-08-26T20:15:22.485Z,20.35
2022-08-26T20:20:42.306Z,20.25
2022-08-26T20:25:43.695Z,20.28
2022-08-26T20:30:45.047Z,20.23
2022-08-26T20:35:46.874Z,20.26
2022-08-26T20:40:49.196Z,20.17
2022-08-26T20:45:50.597Z,20.10
2022-08-26T20:50:55.843Z,20.12
2022-08-26T20:56:01.292Z,20.05
2022-08-26T21:01:07.316Z,19.99
2022-08-26T21:06:09.845Z,19.93
2022-08-26T21:11:11.606Z,19.87
2022-08-26T21:16:13.211Z,19.82
2022-08-26T21:21:14.565Z,19.78
2022-08-26T21:26:16.535Z,19.74
2022-08-26T21:31:18.997Z,19.75
2022-08-26T21:36:20.418Z,19.77
2022-08-26T21:41:24.939Z,19.71
2022-08-26T21:46:27.669Z,19.72
2022-08-26T21:51:30.270Z,19.72
2022-08-26T21:56:32.590Z,19.60
2022-08-26T22:01:34.855Z,19.74
2022-08-26T22:06:40.691Z,19.68
2022-08-26T22:11:42.120Z,19.69
2022-08-26T22:16:48.972Z,19.58
2022-08-26T22:21:53.147Z,19.61
2022-08-26T22:26:55.057Z,19.58
2022-08-26T22:31:57.189Z,19.65
2022-08-26T22:36:59.528Z,19.59
2022-08-26T22:42:00.867Z,19.65
2022-08-26T22:47:02.258Z,19.68
2022-08-26T22:52:03.605Z,19.57
2022-08-26T22:57:04.991Z,19.59
2022-08-26T23:02:06.434Z,19.56
2022-08-26T23:07:09.622Z,19.54
2022-08-26T23:12:10.997Z,19.66
2022-08-26T23:17:14.116Z,19.52
2022-08-26T23:22:17.497Z,19.48
2022-08-26T23:27:18.894Z,19.56
2022-08-26T23:32:20.287Z,19.49
2022-08-26T23:37:31.991Z,19.54
2022-08-26T23:42:36.073Z,19.51
2022-08-26T23:47:37.493Z,19.40
2022-08-26T23:52:57.603Z,19.35
2022-08-26T23:57:59.162Z,19.31
